Time;durP1;ratioP1;P1;durP2;ratioP2;P2;SDS_P1;SDS_P2;PMS_P1;PMS_P2;Temp;Humidity;BMP_temperature;BMP_pressure;BME280_temperature;BME280_humidity;BME280_pressure;Samples;Min_cycle;Max_cycle;Signal;HPM_P1;HPM_P2
2021/03/05 00:01:35;;;;;;;20.75;14.18;;;;;;;-139.48;100.00;61774.03;4979304;28;20132;-70
2021/03/05 00:04:19;;;;;;;17.35;11.88;;;;;;;-139.48;100.00;61774.03;4979576;28;20149;-71
2021/03/05 00:07:03;;;;;;;16.38;11.45;;;;;;;-139.48;100.00;61774.03;4993202;28;20052;-70
2021/03/05 00:09:47;;;;;;;14.68;10.32;;;;;;;-139.48;100.00;61774.03;4993960;28;20049;-71
2021/03/05 00:12:31;;;;;;;17.67;12.55;;;;;;;-139.48;100.00;61774.03;4993735;28;20109;-71
2021/03/05 00:15:15;;;;;;;17.65;10.38;;;;;;;-139.48;100.00;61774.03;4994183;28;20134;-69
2021/03/05 00:17:59;;;;;;;17.35;11.23;;;;;;;-139.48;100.00;61774.03;4992892;28;20053;-71
2021/03/05 00:20:47;;;;;;;15.30;10.90;;;;;;;-139.48;100.00;61774.03;4993102;28;20037;-69
2021/03/05 00:23:31;;;;;;;15.63;11.10;;;;;;;-139.48;100.00;61774.03;4994125;28;20061;-70
2021/03/05 00:26:15;;;;;;;17.85;11.48;;;;;;;-139.48;100.00;61774.03;4979687;28;20069;-70
2021/03/05 00:28:59;;;;;;;17.80;11.68;;;;;;;-139.48;100.00;61774.03;4979405;28;20077;-70
2021/03/05 00:31:43;;;;;;;16.38;10.55;;;;;;;-139.48;100.00;61774.03;4994068;28;20415;-71
2021/03/05 00:34:27;;;;;;;19.92;11.95;;;;;;;-139.48;100.00;61774.03;4994003;28;20053;-71
2021/03/05 00:37:12;;;;;;;20.38;11.70;;;;;;;-139.48;100.00;61774.03;4992691;28;20048;-71
2021/03/05 00:39:55;;;;;;;18.55;12.73;;;;;;;-139.48;100.00;61774.03;4993806;28;20053;-71
2021/03/05 00:42:41;;;;;;;20.10;12.65;;;;;;;-139.48;100.00;61774.03;4993787;28;20414;-70
2021/03/05 00:45:26;;;;;;;17.85;11.43;;;;;;;-139.48;100.00;61774.03;4992654;28;20113;-70
2021/03/05 00:48:10;;;;;;;20.90;12.43;;;;;;;-139.48;100.00;61774.03;4992801;28;20120;-71
2021/03/05 00:50:54;;;;;;;19.38;11.75;;;;;;;-139.48;100.00;61774.03;4978950;28;20049;-70
2021/03/05 00:53:39;;;;;;;20.27;11.93;;;;;;;-139.48;100.00;61774.03;4992555;28;20518;-70
2021/03/05 00:56:22;;;;;;;21.60;11.57;;;;;;;-139.48;100.00;61774.03;4993811;28;20097;-70
2021/03/05 00:59:06;;;;;;;18.80;11.32;;;;;;;-139.48;100.00;61774.03;4993506;28;20048;-70
2021/03/05 01:01:51;;;;;;;19.83;11.95;;;;;;;-139.48;100.00;61774.03;4992702;28;20113;-69
2021/03/05 01:04:35;;;;;;;20.75;12.20;;;;;;;-139.48;100.00;61774.03;4993742;28;20411;-70
2021/03/05 01:07:19;;;;;;;21.25;11.32;;;;;;;-139.48;100.00;61774.03;4992507;28;20049;-70
2021/03/05 01:10:03;;;;;;;;;;;;;;;-139.48;100.00;61774.03;4993794;28;20522;-70
2021/03/05 01:12:48;;;;;;;21.60;11.82;;;;;;;-139.48;100.00;61774.03;4978729;28;19921;-70
2021/03/05 01:15:31;;;;;;;24.17;12.27;;;;;;;-139.48;100.00;61774.03;4993574;28;20053;-70
2021/03/05 01:18:15;;;;;;;22.45;12.30;;;;;;;-139.48;100.00;61774.03;4992128;28;20069;-71
2021/03/05 01:21:00;;;;;;;19.10;11.35;;;;;;;-139.48;100.00;61774.03;4993273;28;20041;-71
2021/03/05 01:23:45;;;;;;;21.77;12.38;;;;;;;-139.48;100.00;61774.03;4992435;28;20163;-70
2021/03/05 01:26:28;;;;;;;24.92;13.10;;;;;;;-139.48;100.00;61774.03;4996445;28;20053;-70
2021/03/05 01:29:12;;;;;;;20.65;12.25;;;;;;;-139.48;100.00;61774.03;4982171;28;20129;-70
2021/03/05 01:31:56;;;;;;;22.00;12.30;;;;;;;-139.48;100.00;61774.03;4997050;28;20141;-70
2021/03/05 01:34:41;;;;;;;21.92;12.52;;;;;;;-139.48;100.00;61774.03;4996257;28;20104;-68
2021/03/05 01:37:24;;;;;;;24.15;12.95;;;;;;;-139.48;100.00;61774.03;4996977;28;20049;-70
2021/03/05 01:40:18;;;;;;;23.05;12.70;;;;;;;-139.48;100.00;61774.03;4996826;28;20506;-70
2021/03/05 01:43:08;;;;;;;22.23;12.93;;;;;;;-139.48;100.00;61774.03;4996632;28;20193;-70
2021/03/05 01:45:52;;;;;;;23.05;13.07;;;;;;;-139.48;100.00;61774.03;4981822;28;20538;-69
2021/03/05 01:48:37;;;;;;;22.05;12.75;;;;;;;-139.48;100.00;61774.03;4996696;28;20132;-70
2021/03/05 01:51:24;;;;;;;26.55;13.55;;;;;;;-139.48;100.00;61774.03;4995767;28;20046;-70
2021/03/05 01:54:08;;;;;;;22.45;12.73;;;;;;;-139.48;100.00;61774.03;4996686;28;20144;-71
2021/03/05 01:56:52;;;;;;;23.50;12.85;;;;;;;-139.48;100.00;61774.03;4996647;28;20048;-70
2021/03/05 01:59:37;;;;;;;21.40;12.52;;;;;;;-139.48;100.00;61774.03;4996142;28;20069;-70
2021/03/05 02:02:21;;;;;;;22.33;12.50;;;;;;;-139.48;100.00;61774.03;4996209;28;20470;-70
2021/03/05 02:05:06;;;;;;;23.73;13.30;;;;;;;-139.48;100.00;61774.03;4995260;28;20061;-70
2021/03/05 02:07:50;;;;;;;19.95;11.43;;;;;;;-139.48;100.00;61774.03;4995413;28;20109;-70
2021/03/05 02:10:33;;;;;;;19.23;10.88;;;;;;;-139.48;100.00;61774.03;4981374;28;20097;-70
2021/03/05 02:13:18;;;;;;;19.02;11.27;;;;;;;-139.48;100.00;61774.03;4996341;28;20053;-70
2021/03/05 02:16:08;;;;;;;21.02;11.43;;;;;;;-139.48;100.00;61774.03;4996296;28;20557;-70
2021/03/05 02:19:03;;;;;;;19.42;10.82;;;;;;;-139.48;100.00;61774.03;4995263;28;20057;-70
2021/03/05 02:22:18;;;;;;;21.50;11.60;;;;;;;-139.48;100.00;61774.03;4995199;28;20194;-70
2021/03/05 02:25:19;;;;;;;21.35;11.05;;;;;;;-139.48;100.00;61774.03;4995842;28;20053;-70
2021/03/05 02:28:21;;;;;;;20.33;10.65;;;;;;;-139.48;100.00;61774.03;4994955;28;20091;-70
2021/03/05 02:31:18;;;;;;;20.55;10.90;;;;;;;-139.48;100.00;61774.03;4995756;28;20045;-70
2021/03/05 02:34:06;;;;;;;19.27;10.57;;;;;;;-139.48;100.00;61774.03;4994650;28;20480;-70
2021/03/05 02:36:53;;;;;;;17.20;10.25;;;;;;;-139.48;100.00;61774.03;4995840;28;20097;-70
2021/03/05 02:39:44;;;;;;;18.23;10.55;;;;;;;-139.48;100.00;61774.03;4980687;28;20045;-70
2021/03/05 02:42:30;;;;;;;18.92;10.98;;;;;;;-139.48;100.00;61774.03;4994716;28;20112;-70
2021/03/05 02:45:21;;;;;;;19.80;10.88;;;;;;;-139.48;100.00;61774.03;4981093;28;20454;-71
2021/03/05 02:48:13;;;;;;;18.88;10.80;;;;;;;-139.48;100.00;61774.03;4980818;28;20451;-71
2021/03/05 02:51:00;;;;;;;19.70;11.05;;;;;;;-139.48;100.00;61774.03;4994517;28;20080;-71
2021/03/05 02:53:46;;;;;;;17.27;10.38;;;;;;;-139.48;100.00;61774.03;4967183;28;20093;-71
2021/03/05 02:56:32;;;;;;;17.40;10.45;;;;;;;-139.48;100.00;61774.03;4995499;28;20660;-70
2021/03/05 02:59:16;;;;;;;18.25;11.07;;;;;;;-139.48;100.00;61774.03;4994027;28;20056;-70
2021/03/05 03:02:01;;;;;;;21.13;11.88;;;;;;;-139.48;100.00;61774.03;4994133;28;20057;-70
2021/03/05 03:04:46;;;;;;;18.20;11.23;;;;;;;-139.48;100.00;61774.03;4995085;28;20184;-68
2021/03/05 03:07:31;;;;;;;17.55;11.02;;;;;;;-139.48;100.00;61774.03;4995311;28;20562;-70
2021/03/05 03:10:16;;;;;;;19.67;11.18;;;;;;;-139.48;100.00;61774.03;4994987;28;20455;-70
2021/03/05 03:13:02;;;;;;;16.70;10.32;;;;;;;-139.48;100.00;61774.03;4994255;28;20083;-69
2021/03/05 03:15:47;;;;;;;19.77;11.18;;;;;;;-139.48;100.00;61774.03;4993889;28;20061;-71
2021/03/05 03:21:32;;;;;;;19.35;10.65;;;;;;;-139.48;100.00;61774.03;4974060;28;20110;-65
2021/03/05 03:24:17;;;;;;;17.85;10.77;;;;;;;-139.48;100.00;61774.03;4975550;28;20105;-65
2021/03/05 03:27:01;;;;;;;18.35;11.05;;;;;;;-139.48;100.00;61774.03;4975532;28;20050;-65
2021/03/05 03:29:45;;;;;;;19.98;11.88;;;;;;;-139.48;100.00;61774.03;4960485;28;20045;-64
2021/03/05 03:32:29;;;;;;;19.77;11.82;;;;;;;-139.48;100.00;61774.03;4974182;28;20134;-65
2021/03/05 03:35:14;;;;;;;18.95;10.90;;;;;;;-139.48;100.00;61774.03;4975109;28;20097;-65
2021/03/05 03:38:00;;;;;;;17.38;10.93;;;;;;;-139.48;100.00;61774.03;4975573;28;20189;-64
2021/03/05 03:40:44;;;;;;;19.02;11.23;;;;;;;-139.48;100.00;61774.03;4974955;28;20127;-64
2021/03/05 03:43:28;;;;;;;19.02;11.20;;;;;;;-139.48;100.00;61774.03;4974129;28;20053;-66
2021/03/05 03:46:12;;;;;;;17.48;10.45;;;;;;;-139.48;100.00;61774.03;4973700;28;20053;-66
2021/03/05 03:49:01;;;;;;;18.80;11.18;;;;;;;-139.48;100.00;61774.03;4973730;28;20054;-65
2021/03/05 03:51:50;;;;;;;18.27;10.98;;;;;;;-139.48;100.00;61774.03;4960470;28;20049;-66
2021/03/05 03:54:37;;;;;;;18.02;10.93;;;;;;;-139.48;100.00;61774.03;4974059;28;20045;-66
2021/03/05 03:57:23;;;;;;;19.05;11.10;;;;;;;-139.48;100.00;61774.03;4974045;28;20050;-65
2021/03/05 04:00:10;;;;;;;18.50;10.95;;;;;;;-139.48;100.00;61774.03;4960118;28;20094;-66
2021/03/05 04:02:55;;;;;;;21.92;11.80;;;;;;;-139.48;100.00;61774.03;4973970;28;20109;-65
2021/03/05 04:05:44;;;;;;;22.08;12.20;;;;;;;-139.48;100.00;61774.03;4973920;28;20069;-66
2021/03/05 04:08:29;;;;;;;18.35;11.30;;;;;;;-139.48;100.00;61774.03;4973662;28;20045;-66
2021/03/05 04:11:14;;;;;;;21.38;12.90;;;;;;;-139.48;100.00;61774.03;4973831;28;20113;-67
2021/03/05 04:13:58;;;;;;;20.77;12.05;;;;;;;-139.48;100.00;61774.03;4974833;28;20102;-65
2021/03/05 04:16:42;;;;;;;19.67;11.82;;;;;;;-139.48;100.00;61774.03;4973792;28;20053;-66
2021/03/05 04:19:27;;;;;;;21.60;11.63;;;;;;;-139.48;100.00;61774.03;4959658;28;20062;-65
2021/03/05 04:22:12;;;;;;;18.20;11.35;;;;;;;-139.48;100.00;61774.03;4973733;28;20113;-64
2021/03/05 04:24:56;;;;;;;23.27;13.70;;;;;;;-139.48;100.00;61774.03;4960039;28;20061;-65
2021/03/05 04:27:40;;;;;;;22.67;12.90;;;;;;;-139.48;100.00;61774.03;4974528;28;20053;-66
2021/03/05 04:30:25;;;;;;;23.55;13.48;;;;;;;-139.48;100.00;61774.03;4974425;28;20097;-66
2021/03/05 04:33:09;;;;;;;19.98;11.40;;;;;;;-139.48;100.00;61774.03;4973359;28;20050;-66
2021/03/05 04:35:53;;;;;;;23.83;12.85;;;;;;;-139.48;100.00;61774.03;4974630;28;20190;-66
2021/03/05 04:38:37;;;;;;;20.52;11.65;;;;;;;-139.48;100.00;61774.03;4974497;28;20050;-66
2021/03/05 04:41:21;;;;;;;22.55;13.75;;;;;;;-139.48;100.00;61774.03;4974184;28;20105;-66
2021/03/05 04:44:05;;;;;;;27.27;13.82;;;;;;;-139.48;100.00;61774.03;4959944;28;20051;-66
2021/03/05 04:46:50;;;;;;;26.45;14.73;;;;;;;-139.48;100.00;61774.03;4974462;28;20134;-66
2021/03/05 04:49:34;;;;;;;23.95;13.27;;;;;;;-139.48;100.00;61774.03;4959526;28;20054;-66
2021/03/05 04:52:18;;;;;;;21.10;12.75;;;;;;;-139.48;100.00;61774.03;4974412;28;20419;-66
2021/03/05 04:55:04;;;;;;;23.52;13.45;;;;;;;-139.48;100.00;61774.03;4959800;28;20408;-66
2021/03/05 04:57:49;;;;;;;21.48;12.65;;;;;;;-139.48;100.00;61774.03;4973290;28;20463;-66
2021/03/05 05:00:33;;;;;;;24.38;12.57;;;;;;;-139.48;100.00;61774.03;4977970;28;20439;-66
2021/03/05 05:03:17;;;;;;;23.92;13.35;;;;;;;-139.48;100.00;61774.03;4978176;28;20054;-66
2021/03/05 05:06:01;;;;;;;24.17;13.55;;;;;;;-139.48;100.00;61774.03;4963190;28;20053;-64
2021/03/05 05:08:45;;;;;;;24.60;13.77;;;;;;;-139.48;100.00;61774.03;4976849;28;20058;-66
2021/03/05 05:11:29;;;;;;;23.85;13.30;;;;;;;-139.48;100.00;61774.03;4977100;28;20074;-66
2021/03/05 05:14:14;;;;;;;26.00;13.82;;;;;;;-139.48;100.00;61774.03;4977732;28;20141;-66
2021/03/05 05:16:58;;;;;;;27.02;13.38;;;;;;;-139.48;100.00;61774.03;4977931;28;20420;-66
2021/03/05 05:19:42;;;;;;;27.52;14.40;;;;;;;-139.48;100.00;61774.03;4962896;28;20045;-65
2021/03/05 05:22:27;;;;;;;21.70;13.32;;;;;;;-139.48;100.00;61774.03;4977567;28;20058;-66
2021/03/05 05:25:11;;;;;;;24.65;14.10;;;;;;;-139.48;100.00;61774.03;4977515;28;20523;-66
2021/03/05 05:27:55;;;;;;;24.52;13.55;;;;;;;-139.48;100.00;61774.03;4977497;28;20050;-66
2021/03/05 05:30:39;;;;;;;24.23;13.25;;;;;;;-139.48;100.00;61774.03;4977638;28;20410;-65
2021/03/05 05:33:23;;;;;;;24.85;13.98;;;;;;;-139.48;100.00;61774.03;4977674;28;20058;-65
2021/03/05 05:36:07;;;;;;;27.83;14.05;;;;;;;-139.48;100.00;61774.03;4977795;28;20093;-65
2021/03/05 05:38:52;;;;;;;22.65;13.10;;;;;;;-139.48;100.00;61774.03;4962809;28;20124;-65
2021/03/05 05:41:39;;;;;;;23.58;13.50;;;;;;;-139.48;100.00;61774.03;4977418;28;20057;-66
2021/03/05 05:44:23;;;;;;;25.00;13.80;;;;;;;-139.48;100.00;61774.03;4962662;28;20054;-66
2021/03/05 05:47:08;;;;;;;26.02;13.65;;;;;;;-139.48;100.00;61774.03;4977688;28;20053;-65
2021/03/05 05:49:54;;;;;;;28.50;15.30;;;;;;;-139.48;100.00;61774.03;4948962;28;20101;-65
2021/03/05 05:52:40;;;;;;;24.75;13.98;;;;;;;-139.48;100.00;61774.03;4977316;28;20058;-66
2021/03/05 05:55:28;;;;;;;26.63;14.38;;;;;;;-139.48;100.00;61774.03;4962710;28;20053;-66
2021/03/05 05:58:12;;;;;;;28.90;14.15;;;;;;;-139.48;100.00;61774.03;4976849;28;20102;-65
2021/03/05 06:00:56;;;;;;;24.98;14.43;;;;;;;-139.48;100.00;61774.03;4962430;28;20049;-65
2021/03/05 06:03:41;;;;;;;27.38;14.88;;;;;;;-139.48;100.00;61774.03;4976111;28;20526;-64
2021/03/05 06:06:25;;;;;;;28.33;15.13;;;;;;;-139.48;100.00;61774.03;4976836;28;20134;-65
2021/03/05 06:09:09;;;;;;;26.10;13.70;;;;;;;-139.48;100.00;61774.03;4975889;28;20050;-65
2021/03/05 06:11:53;;;;;;;25.27;14.52;;;;;;;-139.48;100.00;61774.03;4976768;28;20046;-65
2021/03/05 06:14:39;;;;;;;26.48;14.95;;;;;;;-139.48;100.00;61774.03;4977391;28;20085;-65
2021/03/05 06:17:39;;;;;;;25.08;14.10;;;;;;;-139.48;100.00;61774.03;4962568;28;20045;-65
2021/03/05 06:20:24;;;;;;;24.83;13.43;;;;;;;-139.48;100.00;61774.03;4962124;28;20535;-65
2021/03/05 06:23:11;;;;;;;26.45;13.98;;;;;;;-139.48;100.00;61774.03;4976506;28;20122;-65
2021/03/05 06:25:59;;;;;;;30.48;15.55;;;;;;;-139.48;100.00;61774.03;4976529;28;20050;-65
2021/03/05 06:29:00;;;;;;;28.55;14.90;;;;;;;-139.48;100.00;61774.03;4976461;28;20093;-65
2021/03/05 06:31:59;;;;;;;28.52;13.98;;;;;;;-139.48;100.00;61774.03;4975617;28;20073;-66
2021/03/05 06:34:47;;;;;;;26.42;15.45;;;;;;;-139.48;100.00;61774.03;4976625;28;20507;-66
2021/03/05 06:37:43;;;;;;;30.85;15.55;;;;;;;-139.48;100.00;61774.03;4975509;28;20050;-65
2021/03/05 06:40:27;;;;;;;28.42;16.20;;;;;;;-139.48;100.00;61774.03;4975002;28;20475;-66
2021/03/05 06:43:11;;;;;;;34.45;16.77;;;;;;;-139.48;100.00;61774.03;4976035;28;20089;-66
2021/03/05 06:45:55;;;;;;;36.97;16.77;;;;;;;-139.48;100.00;61774.03;4975308;28;20116;-65
2021/03/05 06:48:52;;;;;;;29.08;15.40;;;;;;;-139.48;100.00;61774.03;4961608;28;20101;-66
2021/03/05 06:51:37;;;;;;;28.75;14.52;;;;;;;-139.48;100.00;61774.03;4974898;28;20049;-65
2021/03/05 06:54:22;;;;;;;30.10;16.33;;;;;;;-139.48;100.00;61774.03;4961415;28;20066;-65
2021/03/05 06:57:07;;;;;;;32.42;16.95;;;;;;;-139.48;100.00;61774.03;4975018;28;20079;-65
2021/03/05 06:59:52;;;;;;;43.65;22.15;;;;;;;-139.48;100.00;61774.03;4961066;28;20120;-66
2021/03/05 07:02:36;;;;;;;35.25;17.25;;;;;;;-139.48;100.00;61774.03;4976002;28;20062;-65
2021/03/05 07:05:47;;;;;;;39.60;19.35;;;;;;;-139.48;100.00;61774.03;4975682;28;20057;-65
2021/03/05 07:08:40;;;;;;;28.65;14.93;;;;;;;-139.48;100.00;61774.03;4974720;28;20086;-65
2021/03/05 07:11:39;;;;;;;31.90;15.82;;;;;;;-139.48;100.00;61774.03;4975630;28;20567;-66
2021/03/05 07:14:31;;;;;;;23.58;12.75;;;;;;;-139.48;100.00;61774.03;4975613;28;20045;-66
2021/03/05 07:17:16;;;;;;;26.38;13.50;;;;;;;-139.48;100.00;61774.03;4974755;28;20053;-66
2021/03/05 07:20:01;;;;;;;25.17;14.10;;;;;;;-139.48;100.00;61774.03;4974292;28;20058;-66
2021/03/05 07:22:48;;;;;;;20.65;11.95;;;;;;;-139.48;100.00;61774.03;4975445;28;20102;-65
2021/03/05 07:25:34;;;;;;;26.17;14.07;;;;;;;-139.48;100.00;61774.03;4960672;28;20125;-66
2021/03/05 07:28:18;;;;;;;25.33;13.13;;;;;;;-139.48;100.00;61774.03;4974497;28;20105;-65
2021/03/05 07:31:03;;;;;;;29.58;14.30;;;;;;;-139.48;100.00;61774.03;4960522;28;20061;-66
2021/03/05 07:33:51;;;;;;;30.33;15.10;;;;;;;-139.48;100.00;61774.03;4974483;28;20105;-66
2021/03/05 07:36:35;;;;;;;32.03;16.02;;;;;;;-139.48;100.00;61774.03;4979013;28;20086;-66
2021/03/05 07:39:24;;;;;;;26.42;13.88;;;;;;;-139.48;100.00;61774.03;4977751;28;20053;-66
2021/03/05 07:42:09;;;;;;;25.27;13.95;;;;;;;-139.48;100.00;61774.03;4979184;28;20057;-66
2021/03/05 07:44:53;;;;;;;20.80;11.93;;;;;;;-139.48;100.00;61774.03;4964241;28;20098;-66
2021/03/05 07:47:39;;;;;;;24.10;13.13;;;;;;;-139.48;100.00;61774.03;4974312;28;20049;-66
2021/03/05 07:50:25;;;;;;;28.48;14.15;;;;;;;-139.48;100.00;61774.03;4960306;28;20053;-66
2021/03/05 07:53:09;;;;;;;26.98;13.93;;;;;;;-139.48;100.00;61774.03;4973910;28;20073;-66
2021/03/05 07:55:53;;;;;;;24.63;13.75;;;;;;;-139.48;100.00;61774.03;4974920;28;20053;-66
2021/03/05 07:58:45;;;;;;;25.88;14.55;;;;;;;-139.48;100.00;61774.03;4960521;28;20143;-66
2021/03/05 08:01:51;;;;;;;21.98;11.88;;;;;;;-139.48;100.00;61774.03;4960296;28;20064;-65
2021/03/05 08:05:00;;;;;;;20.70;12.23;;;;;;;-139.48;100.00;61774.03;4975321;28;20050;-66
2021/03/05 08:08:11;;;;;;;22.88;12.32;;;;;;;-139.48;100.00;61774.03;4974738;28;20094;-65
2021/03/05 08:11:01;;;;;;;29.27;13.35;;;;;;;-139.48;100.00;61774.03;4960066;28;20077;-66
2021/03/05 08:13:48;;;;;;;23.55;12.43;;;;;;;-139.48;100.00;61774.03;4974698;28;20516;-65
2021/03/05 08:16:33;;;;;;;21.60;11.13;;;;;;;-139.48;100.00;61774.03;4960220;28;20482;-65
2021/03/05 08:19:17;;;;;;;20.05;11.57;;;;;;;-139.48;100.00;61774.03;4959917;28;20050;-66
2021/03/05 08:22:01;;;;;;;23.85;12.40;;;;;;;-139.48;100.00;61774.03;4974872;28;20046;-66
2021/03/05 08:24:45;;;;;;;;;;;;;;;-139.48;100.00;61774.03;4975276;28;20092;-65
2021/03/05 08:27:36;;;;;;;20.00;10.40;;;;;;;-139.48;100.00;61774.03;4973513;28;19940;-66
2021/03/05 08:30:26;;;;;;;19.92;11.35;;;;;;;-139.48;100.00;61774.03;4974329;28;20049;-66
2021/03/05 08:33:35;;;;;;;16.52;9.65;;;;;;;-139.48;100.00;61774.03;4973133;28;20052;-66
2021/03/05 08:36:48;;;;;;;15.68;9.00;;;;;;;-139.48;100.00;61774.03;4973442;28;20042;-66
2021/03/05 08:39:32;;;;;;;17.90;9.30;;;;;;;-139.48;100.00;61774.03;4974455;28;20066;-66
2021/03/05 08:42:30;;;;;;;19.27;9.75;;;;;;;-139.48;100.00;61774.03;4974378;28;20089;-65
2021/03/05 08:45:16;;;;;;;16.20;10.05;;;;;;;-139.48;100.00;61774.03;4974508;28;20503;-66
2021/03/05 08:48:02;;;;;;;29.00;16.05;;;;;;;-139.48;100.00;61774.03;4973576;28;20133;-65
2021/03/05 08:50:46;;;;;;;15.60;7.57;;;;;;;-139.48;100.00;61774.03;4973158;28;20046;-66
2021/03/05 08:53:36;;;;;;;16.88;9.40;;;;;;;-139.48;100.00;61774.03;4974237;28;20054;-66
2021/03/05 08:56:23;;;;;;;16.73;7.43;;;;;;;-139.48;100.00;61774.03;4973369;28;20096;-65
2021/03/05 08:59:09;;;;;;;13.32;7.43;;;;;;;-139.48;100.00;61774.03;4973149;28;20092;-66
2021/03/05 09:01:53;;;;;;;23.33;12.98;;;;;;;-139.48;100.00;61774.03;4959862;28;20046;-66
2021/03/05 09:04:40;;;;;;;14.93;8.48;;;;;;;-139.48;100.00;61774.03;4974133;28;20215;-66
2021/03/05 09:07:25;;;;;;;15.48;8.38;;;;;;;-139.48;100.00;61774.03;4973338;28;20575;-66
2021/03/05 09:10:09;;;;;;;15.93;9.18;;;;;;;-139.48;100.00;61774.03;4959714;28;20193;-66
2021/03/05 09:12:55;;;;;;;13.55;8.10;;;;;;;-139.48;100.00;61774.03;4974298;28;20058;-66
2021/03/05 09:15:43;;;;;;;15.10;7.63;;;;;;;-139.48;100.00;61774.03;4959404;28;20116;-65
2021/03/05 09:18:30;;;;;;;14.13;8.13;;;;;;;-139.48;100.00;61774.03;4974231;28;20109;-65
2021/03/05 09:21:14;;;;;;;13.98;8.27;;;;;;;-139.48;100.00;61774.03;4973949;28;20080;-65
2021/03/05 09:23:58;;;;;;;15.55;7.75;;;;;;;-139.48;100.00;61774.03;4973963;28;20049;-65
2021/03/05 09:26:42;;;;;;;13.70;7.25;;;;;;;-139.48;100.00;61774.03;4974176;28;20090;-65
2021/03/05 09:29:28;;;;;;;21.67;8.43;;;;;;;-139.48;100.00;61774.03;4973808;28;20057;-65
2021/03/05 09:32:12;;;;;;;17.25;8.48;;;;;;;-139.48;100.00;61774.03;4973928;28;20181;-64
2021/03/05 09:34:58;;;;;;;14.75;7.65;;;;;;;-139.48;100.00;61774.03;4959118;28;20053;-66
2021/03/05 09:37:42;;;;;;;18.38;8.93;;;;;;;-139.48;100.00;61774.03;4974398;28;20150;-64
2021/03/05 09:40:28;;;;;;;15.18;8.20;;;;;;;-139.48;100.00;61774.03;4973646;28;20057;-66
2021/03/05 09:43:14;;;;;;;32.67;16.95;;;;;;;-139.48;100.00;61774.03;4973668;28;20170;-65
2021/03/05 09:45:58;;;;;;;33.40;17.50;;;;;;;-139.48;100.00;61774.03;4975762;28;20631;-65
2021/03/05 09:48:42;;;;;;;23.98;13.30;;;;;;;-139.48;100.00;61774.03;4977305;28;20414;-63
2021/03/05 09:51:38;;;;;;;36.53;18.15;;;;;;;-139.48;100.00;61774.03;4976134;28;20459;-64
2021/03/05 09:54:36;;;;;;;23.00;12.40;;;;;;;-139.48;100.00;61774.03;4962772;28;20045;-64
2021/03/05 09:57:22;;;;;;;16.55;8.90;;;;;;;-139.48;100.00;61774.03;4976229;28;20101;-64
2021/03/05 10:00:07;;;;;;;17.52;9.30;;;;;;;-139.48;100.00;61774.03;4976881;28;20053;-66
2021/03/05 10:03:01;;;;;;;16.00;8.52;;;;;;;-139.48;100.00;61774.03;4976916;28;20097;-66
2021/03/05 10:05:45;;;;;;;25.08;12.40;;;;;;;-139.48;100.00;61774.03;4962337;28;20486;-66
2021/03/05 10:08:30;;;;;;;18.23;9.50;;;;;;;-139.48;100.00;61774.03;4976975;28;20125;-66
2021/03/05 10:11:14;;;;;;;19.15;9.43;;;;;;;-139.48;100.00;61774.03;4976833;28;20439;-65
2021/03/05 10:13:58;;;;;;;40.53;19.00;;;;;;;-139.48;100.00;61774.03;4976030;28;20472;-66
2021/03/05 10:16:43;;;;;;;16.90;9.00;;;;;;;-139.48;100.00;61774.03;4976767;28;20113;-66
2021/03/05 10:19:29;;;;;;;15.85;8.13;;;;;;;-139.48;100.00;61774.03;4962121;28;20542;-66
2021/03/05 10:22:13;;;;;;;32.38;12.65;;;;;;;-139.48;100.00;61774.03;4962143;28;20470;-66
2021/03/05 10:24:57;;;;;;;16.85;9.35;;;;;;;-139.48;100.00;61774.03;4962189;28;20049;-67
2021/03/05 10:27:42;;;;;;;16.70;9.00;;;;;;;-139.48;100.00;61774.03;4976604;28;20109;-65
2021/03/05 10:30:26;;;;;;;;;;;;;;;-139.48;100.00;61774.03;4975815;28;20097;-64
2021/03/05 10:33:10;;;;;;;22.88;9.90;;;;;;;-139.48;100.00;61774.03;4975249;28;19985;-66
2021/03/05 10:35:54;;;;;;;18.00;9.55;;;;;;;-139.48;100.00;61774.03;4976475;28;20053;-66
2021/03/05 10:38:38;;;;;;;25.05;10.40;;;;;;;-139.48;100.00;61774.03;4976318;28;20468;-67
2021/03/05 10:41:22;;;;;;;20.75;9.77;;;;;;;-139.48;100.00;61774.03;4975129;28;20050;-65
2021/03/05 10:44:07;;;;;;;25.30;12.07;;;;;;;-139.48;100.00;61774.03;4976388;28;20431;-65
2021/03/05 10:46:52;;;;;;;26.45;11.95;;;;;;;-139.48;100.00;61774.03;4976295;28;20475;-65
2021/03/05 10:49:37;;;;;;;19.73;10.10;;;;;;;-139.48;100.00;61774.03;4975247;28;20101;-65
2021/03/05 10:52:22;;;;;;;23.50;10.80;;;;;;;-139.48;100.00;61774.03;4974897;28;20423;-65
2021/03/05 10:55:07;;;;;;;20.15;10.27;;;;;;;-139.48;100.00;61774.03;4961628;28;20066;-64
2021/03/05 10:57:51;;;;;;;20.67;10.23;;;;;;;-139.48;100.00;61774.03;4975595;28;20077;-65
2021/03/05 11:00:35;;;;;;;18.35;10.40;;;;;;;-139.48;100.00;61774.03;4975726;28;20057;-65
2021/03/05 11:03:19;;;;;;;19.42;10.93;;;;;;;-139.48;100.00;61774.03;4975697;28;20136;-65
2021/03/05 11:06:03;;;;;;;20.55;10.95;;;;;;;-139.48;100.00;61774.03;4975982;28;20138;-64
2021/03/05 11:08:47;;;;;;;19.73;11.60;;;;;;;-139.48;100.00;61774.03;4961336;28;20053;-65
2021/03/05 11:11:31;;;;;;;20.33;10.68;;;;;;;-139.48;100.00;61774.03;4975589;28;20045;-65
2021/03/05 11:14:16;;;;;;;44.50;21.10;;;;;;;-139.48;100.00;61774.03;4975006;28;20102;-63
2021/03/05 11:17:00;;;;;;;21.35;11.90;;;;;;;-139.48;100.00;61774.03;4975720;28;20046;-65
2021/03/05 11:19:44;;;;;;;23.90;12.63;;;;;;;-139.48;100.00;61774.03;4975488;28;20101;-64
2021/03/05 11:22:28;;;;;;;24.58;11.40;;;;;;;-139.48;100.00;61774.03;4960827;28;20487;-64
2021/03/05 11:25:13;;;;;;;28.23;13.98;;;;;;;-139.48;100.00;61774.03;4974752;28;20101;-64
2021/03/05 11:27:57;;;;;;;31.23;13.63;;;;;;;-139.48;100.00;61774.03;4975487;28;20554;-64
2021/03/05 11:30:43;;;;;;;50.92;25.40;;;;;;;-139.48;100.00;61774.03;4974262;28;20067;-64
2021/03/05 11:33:26;;;;;;;21.88;11.75;;;;;;;-139.48;100.00;61774.03;4975526;28;20522;-65
2021/03/05 11:36:14;;;;;;;29.88;15.43;;;;;;;-139.48;100.00;61774.03;4975464;28;20134;-65
2021/03/05 11:38:59;;;;;;;22.77;12.82;;;;;;;-139.48;100.00;61774.03;4975374;28;20131;-65
2021/03/05 11:41:43;;;;;;;35.47;15.32;;;;;;;-139.48;100.00;61774.03;4960700;28;20097;-65
2021/03/05 11:44:27;;;;;;;34.47;17.60;;;;;;;-139.48;100.00;61774.03;4974399;28;20054;-65
2021/03/05 11:47:11;;;;;;;22.73;11.23;;;;;;;-139.48;100.00;61774.03;4975322;28;20054;-65
2021/03/05 11:49:56;;;;;;;24.80;12.30;;;;;;;-139.48;100.00;61774.03;4974099;28;20050;-64
2021/03/05 11:52:40;;;;;;;23.85;12.50;;;;;;;-139.48;100.00;61774.03;4974927;28;20054;-65
2021/03/05 11:55:25;;;;;;;23.55;12.52;;;;;;;-139.48;100.00;61774.03;4974173;28;20562;-65
2021/03/05 11:58:08;;;;;;;23.38;12.80;;;;;;;-139.48;100.00;61774.03;4974785;28;20097;-65
2021/03/05 12:00:52;;;;;;;21.40;13.38;;;;;;;-139.48;100.00;61774.03;4974808;28;20130;-65
2021/03/05 12:03:38;;;;;;;88.03;44.35;;;;;;;-139.48;100.00;61774.03;4973791;28;20057;-65
2021/03/05 12:06:26;;;;;;;43.58;24.15;;;;;;;-139.48;100.00;61774.03;4973972;28;20134;-65
2021/03/05 12:09:10;;;;;;;27.05;15.70;;;;;;;-139.48;100.00;61774.03;4973086;28;20117;-66
2021/03/05 12:11:54;;;;;;;20.00;12.13;;;;;;;-139.48;100.00;61774.03;4974565;28;20054;-65
2021/03/05 12:14:38;;;;;;;21.35;12.20;;;;;;;-139.48;100.00;61774.03;4973897;28;20116;-65
2021/03/05 12:17:22;;;;;;;32.00;18.83;;;;;;;-139.48;100.00;61774.03;4974501;28;20116;-66
2021/03/05 12:20:07;;;;;;;29.73;16.48;;;;;;;-139.48;100.00;61774.03;4974414;28;20046;-65
2021/03/05 12:22:51;;;;;;;32.17;15.27;;;;;;;-139.48;100.00;61774.03;4973454;28;20057;-66
2021/03/05 12:25:35;;;;;;;47.10;26.52;;;;;;;-139.48;100.00;61774.03;4974722;28;20097;-66